sensor_id;sensor_type;location;lat;lon;timestamp;P1;durP1;ratioP1;P2;durP2;ratioP2
41263;SDS011;26998;48.714;9.414;2022-08-03T00:01:50;4.93;;;4.43;;
41263;SDS011;26998;48.714;9.414;2022-08-03T00:04:16;6.72;;;4.95;;
41263;SDS011;26998;48.714;9.414;2022-08-03T00:06:59;6.10;;;4.88;;
41263;SDS011;26998;48.714;9.414;2022-08-03T00:09:25;5.00;;;4.47;;
41263;SDS011;26998;48.714;9.414;2022-08-03T00:12:01;5.80;;;5.00;;
41263;SDS011;26998;48.714;9.414;2022-08-03T00:14:27;6.30;;;4.72;;
41263;SDS011;26998;48.714;9.414;2022-08-03T00:16:54;6.63;;;4.50;;
41263;SDS011;26998;48.714;9.414;2022-08-03T00:19:23;6.65;;;4.70;;
41263;SDS011;26998;48.714;9.414;2022-08-03T00:21:49;7.57;;;4.82;;
41263;SDS011;26998;48.714;9.414;2022-08-03T00:24:16;6.93;;;5.25;;
41263;SDS011;26998;48.714;9.414;2022-08-03T00:26:43;7.47;;;5.10;;
41263;SDS011;26998;48.714;9.414;2022-08-03T00:29:09;6.03;;;5.13;;
41263;SDS011;26998;48.714;9.414;2022-08-03T00:31:36;7.38;;;4.88;;
41263;SDS011;26998;48.714;9.414;2022-08-03T00:34:18;9.80;;;5.20;;
41263;SDS011;26998;48.714;9.414;2022-08-03T00:37:05;4.43;;;4.03;;
41263;SDS011;26998;48.714;9.414;2022-08-03T00:39:31;5.82;;;5.22;;
41263;SDS011;26998;48.714;9.414;2022-08-03T00:42:07;7.45;;;4.93;;
41263;SDS011;26998;48.714;9.414;2022-08-03T00:44:40;17.25;;;5.70;;
41263;SDS011;26998;48.714;9.414;2022-08-03T00:47:09;6.00;;;4.60;;
41263;SDS011;26998;48.714;9.414;2022-08-03T00:49:36;6.35;;;4.30;;
41263;SDS011;26998;48.714;9.414;2022-08-03T00:52:09;4.80;;;4.40;;
41263;SDS011;26998;48.714;9.414;2022-08-03T00:54:36;5.78;;;4.93;;
41263;SDS011;26998;48.714;9.414;2022-08-03T00:57:07;6.60;;;4.57;;
41263;SDS011;26998;48.714;9.414;2022-08-03T01:02:04;5.00;;;4.50;;
41263;SDS011;26998;48.714;9.414;2022-08-03T01:04:31;5.05;;;4.57;;
41263;SDS011;26998;48.714;9.414;2022-08-03T01:07:16;5.00;;;4.50;;
41263;SDS011;26998;48.714;9.414;2022-08-03T01:09:57;6.43;;;4.82;;
41263;SDS011;26998;48.714;9.414;2022-08-03T01:12:47;6.10;;;4.60;;
41263;SDS011;26998;48.714;9.414;2022-08-03T01:16:01;10.77;;;4.95;;
41263;SDS011;26998;48.714;9.414;2022-08-03T01:18:35;10.40;;;5.43;;
41263;SDS011;26998;48.714;9.414;2022-08-03T01:21:12;5.10;;;4.60;;
41263;SDS011;26998;48.714;9.414;2022-08-03T01:23:48;5.95;;;4.57;;
41263;SDS011;26998;48.714;9.414;2022-08-03T01:26:35;4.90;;;4.47;;
41263;SDS011;26998;48.714;9.414;2022-08-03T01:29:13;4.97;;;4.47;;
41263;SDS011;26998;48.714;9.414;2022-08-03T01:31:52;7.93;;;4.75;;
41263;SDS011;26998;48.714;9.414;2022-08-03T01:34:50;6.90;;;4.85;;
41263;SDS011;26998;48.714;9.414;2022-08-03T01:37:25;6.15;;;4.70;;
41263;SDS011;26998;48.714;9.414;2022-08-03T01:39:57;6.13;;;5.05;;
41263;SDS011;26998;48.714;9.414;2022-08-03T01:42:28;8.25;;;4.85;;
41263;SDS011;26998;48.714;9.414;2022-08-03T01:44:57;5.88;;;4.65;;
41263;SDS011;26998;48.714;9.414;2022-08-03T01:47:27;5.93;;;5.00;;
41263;SDS011;26998;48.714;9.414;2022-08-03T01:49:55;6.40;;;4.75;;
41263;SDS011;26998;48.714;9.414;2022-08-03T01:52:24;5.28;;;4.72;;
41263;SDS011;26998;48.714;9.414;2022-08-03T01:54:52;6.55;;;4.50;;
41263;SDS011;26998;48.714;9.414;2022-08-03T01:57:20;7.35;;;5.90;;
41263;SDS011;26998;48.714;9.414;2022-08-03T01:59:49;5.38;;;4.78;;
41263;SDS011;26998;48.714;9.414;2022-08-03T02:02:16;6.15;;;5.13;;
41263;SDS011;26998;48.714;9.414;2022-08-03T02:04:58;6.28;;;5.30;;
41263;SDS011;26998;48.714;9.414;2022-08-03T02:07:26;5.47;;;4.93;;
41263;SDS011;26998;48.714;9.414;2022-08-03T02:09:55;8.32;;;4.93;;
41263;SDS011;26998;48.714;9.414;2022-08-03T02:12:24;7.88;;;5.25;;
41263;SDS011;26998;48.714;9.414;2022-08-03T02:14:53;7.97;;;5.03;;
41263;SDS011;26998;48.714;9.414;2022-08-03T02:17:22;5.40;;;4.90;;
41263;SDS011;26998;48.714;9.414;2022-08-03T02:20:05;5.25;;;4.75;;
41263;SDS011;26998;48.714;9.414;2022-08-03T02:22:32;7.38;;;4.93;;
41263;SDS011;26998;48.714;9.414;2022-08-03T02:24:59;6.72;;;4.60;;
41263;SDS011;26998;48.714;9.414;2022-08-03T02:27:28;6.38;;;5.30;;
41263;SDS011;26998;48.714;9.414;2022-08-03T02:30:04;5.40;;;4.47;;
41263;SDS011;26998;48.714;9.414;2022-08-03T02:32:34;5.22;;;4.68;;
41263;SDS011;26998;48.714;9.414;2022-08-03T02:35:09;7.63;;;5.05;;
41263;SDS011;26998;48.714;9.414;2022-08-03T02:37:40;5.30;;;4.80;;
41263;SDS011;26998;48.714;9.414;2022-08-03T02:40:15;12.45;;;5.45;;
41263;SDS011;26998;48.714;9.414;2022-08-03T02:42:43;7.70;;;5.28;;
41263;SDS011;26998;48.714;9.414;2022-08-03T02:45:12;6.60;;;5.57;;
41263;SDS011;26998;48.714;9.414;2022-08-03T02:47:43;5.28;;;4.72;;
41263;SDS011;26998;48.714;9.414;2022-08-03T02:50:20;7.25;;;4.88;;
41263;SDS011;26998;48.714;9.414;2022-08-03T02:52:48;6.03;;;4.70;;
41263;SDS011;26998;48.714;9.414;2022-08-03T02:55:16;6.00;;;5.32;;
41263;SDS011;26998;48.714;9.414;2022-08-03T02:57:45;5.63;;;5.05;;
41263;SDS011;26998;48.714;9.414;2022-08-03T03:00:13;5.50;;;4.90;;
41263;SDS011;26998;48.714;9.414;2022-08-03T03:02:55;8.48;;;5.60;;
41263;SDS011;26998;48.714;9.414;2022-08-03T03:05:25;5.30;;;4.82;;
41263;SDS011;26998;48.714;9.414;2022-08-03T03:08:13;9.15;;;5.75;;
41263;SDS011;26998;48.714;9.414;2022-08-03T03:10:44;6.07;;;4.95;;
41263;SDS011;26998;48.714;9.414;2022-08-03T03:13:12;8.98;;;5.78;;
41263;SDS011;26998;48.714;9.414;2022-08-03T03:15:41;6.90;;;5.03;;
41263;SDS011;26998;48.714;9.414;2022-08-03T03:18:12;5.68;;;5.03;;
41263;SDS011;26998;48.714;9.414;2022-08-03T03:20:47;5.63;;;4.57;;
41263;SDS011;26998;48.714;9.414;2022-08-03T03:23:16;6.03;;;5.38;;
41263;SDS011;26998;48.714;9.414;2022-08-03T03:25:45;9.02;;;5.10;;
41263;SDS011;26998;48.714;9.414;2022-08-03T03:28:12;7.53;;;5.68;;
41263;SDS011;26998;48.714;9.414;2022-08-03T03:30:40;8.07;;;5.57;;
41263;SDS011;26998;48.714;9.414;2022-08-03T03:33:07;5.50;;;5.00;;
41263;SDS011;26998;48.714;9.414;2022-08-03T03:35:34;9.23;;;5.10;;
41263;SDS011;26998;48.714;9.414;2022-08-03T03:38:04;6.45;;;4.45;;
41263;SDS011;26998;48.714;9.414;2022-08-03T03:40:33;7.38;;;5.13;;
41263;SDS011;26998;48.714;9.414;2022-08-03T03:43:01;7.32;;;5.32;;
41263;SDS011;26998;48.714;9.414;2022-08-03T03:45:28;7.18;;;5.28;;
41263;SDS011;26998;48.714;9.414;2022-08-03T03:47:58;8.70;;;5.85;;
41263;SDS011;26998;48.714;9.414;2022-08-03T03:50:25;7.25;;;5.97;;
41263;SDS011;26998;48.714;9.414;2022-08-03T03:52:54;7.40;;;5.68;;
41263;SDS011;26998;48.714;9.414;2022-08-03T03:55:20;7.55;;;5.30;;
41263;SDS011;26998;48.714;9.414;2022-08-03T03:57:47;5.47;;;4.90;;
41263;SDS011;26998;48.714;9.414;2022-08-03T04:00:14;9.02;;;5.15;;
41263;SDS011;26998;48.714;9.414;2022-08-03T04:02:43;5.72;;;5.20;;
41263;SDS011;26998;48.714;9.414;2022-08-03T04:05:11;9.18;;;5.50;;
41263;SDS011;26998;48.714;9.414;2022-08-03T04:07:50;5.88;;;5.22;;
41263;SDS011;26998;48.714;9.414;2022-08-03T04:10:24;7.15;;;5.85;;
41263;SDS011;26998;48.714;9.414;2022-08-03T04:12:54;5.93;;;5.40;;
41263;SDS011;26998;48.714;9.414;2022-08-03T04:15:24;6.32;;;5.68;;
41263;SDS011;26998;48.714;9.414;2022-08-03T04:17:54;7.28;;;5.45;;
41263;SDS011;26998;48.714;9.414;2022-08-03T04:20:26;8.82;;;5.53;;
41263;SDS011;26998;48.714;9.414;2022-08-03T04:22:55;6.13;;;5.38;;
41263;SDS011;26998;48.714;9.414;2022-08-03T04:25:26;7.70;;;5.07;;
41263;SDS011;26998;48.714;9.414;2022-08-03T04:28:00;5.95;;;5.35;;
41263;SDS011;26998;48.714;9.414;2022-08-03T04:30:47;5.60;;;5.00;;
41263;SDS011;26998;48.714;9.414;2022-08-03T04:33:15;5.55;;;4.97;;
41263;SDS011;26998;48.714;9.414;2022-08-03T04:35:45;5.97;;;4.65;;
41263;SDS011;26998;48.714;9.414;2022-08-03T04:38:28;6.32;;;5.32;;
41263;SDS011;26998;48.714;9.414;2022-08-03T04:40:56;14.18;;;11.10;;
41263;SDS011;26998;48.714;9.414;2022-08-03T04:43:24;7.85;;;5.28;;
41263;SDS011;26998;48.714;9.414;2022-08-03T04:45:53;5.53;;;5.03;;
41263;SDS011;26998;48.714;9.414;2022-08-03T04:48:22;5.40;;;4.90;;
41263;SDS011;26998;48.714;9.414;2022-08-03T04:50:49;10.32;;;5.68;;
41263;SDS011;26998;48.714;9.414;2022-08-03T04:53:16;8.48;;;5.13;;
41263;SDS011;26998;48.714;9.414;2022-08-03T04:55:43;7.43;;;5.60;;
41263;SDS011;26998;48.714;9.414;2022-08-03T04:58:10;6.90;;;5.72;;
41263;SDS011;26998;48.714;9.414;2022-08-03T05:00:39;8.60;;;5.13;;
41263;SDS011;26998;48.714;9.414;2022-08-03T05:03:06;6.43;;;5.65;;
41263;SDS011;26998;48.714;9.414;2022-08-03T05:05:50;7.45;;;5.22;;
41263;SDS011;26998;48.714;9.414;2022-08-03T05:08:27;7.78;;;4.90;;
41263;SDS011;26998;48.714;9.414;2022-08-03T05:10:57;6.53;;;4.68;;
41263;SDS011;26998;48.714;9.414;2022-08-03T05:13:24;6.47;;;4.90;;
41263;SDS011;26998;48.714;9.414;2022-08-03T05:15:51;11.77;;;5.45;;
41263;SDS011;26998;48.714;9.414;2022-08-03T05:18:17;6.78;;;5.40;;
41263;SDS011;26998;48.714;9.414;2022-08-03T05:20:44;5.47;;;4.60;;
41263;SDS011;26998;48.714;9.414;2022-08-03T05:23:10;8.00;;;4.97;;
41263;SDS011;26998;48.714;9.414;2022-08-03T05:25:37;5.47;;;4.05;;
41263;SDS011;26998;48.714;9.414;2022-08-03T05:28:04;5.88;;;4.38;;
41263;SDS011;26998;48.714;9.414;2022-08-03T05:30:31;4.07;;;3.67;;
41263;SDS011;26998;48.714;9.414;2022-08-03T05:33:00;4.88;;;4.03;;
41263;SDS011;26998;48.714;9.414;2022-08-03T05:35:27;4.95;;;4.43;;
41263;SDS011;26998;48.714;9.414;2022-08-03T05:38:16;6.20;;;4.20;;
41263;SDS011;26998;48.714;9.414;2022-08-03T05:40:53;5.65;;;3.92;;
41263;SDS011;26998;48.714;9.414;2022-08-03T05:43:23;7.67;;;4.00;;
41263;SDS011;26998;48.714;9.414;2022-08-03T05:45:49;5.00;;;4.60;;
41263;SDS011;26998;48.714;9.414;2022-08-03T05:48:37;5.15;;;4.75;;
41263;SDS011;26998;48.714;9.414;2022-08-03T05:51:03;5.82;;;5.18;;
41263;SDS011;26998;48.714;9.414;2022-08-03T05:53:32;5.63;;;5.07;;
41263;SDS011;26998;48.714;9.414;2022-08-03T05:55:59;6.28;;;4.72;;
41263;SDS011;26998;48.714;9.414;2022-08-03T06:01:06;8.68;;;5.00;;
41263;SDS011;26998;48.714;9.414;2022-08-03T06:03:33;7.22;;;5.40;;
41263;SDS011;26998;48.714;9.414;2022-08-03T06:05:59;5.97;;;5.30;;
41263;SDS011;26998;48.714;9.414;2022-08-03T06:08:27;5.53;;;4.50;;
41263;SDS011;26998;48.714;9.414;2022-08-03T06:10:53;5.35;;;4.85;;
41263;SDS011;26998;48.714;9.414;2022-08-03T06:13:20;5.55;;;4.82;;
41263;SDS011;26998;48.714;9.414;2022-08-03T06:15:46;6.68;;;5.05;;
41263;SDS011;26998;48.714;9.414;2022-08-03T06:18:13;8.13;;;4.80;;
41263;SDS011;26998;48.714;9.414;2022-08-03T06:20:39;5.85;;;5.25;;
41263;SDS011;26998;48.714;9.414;2022-08-03T06:23:07;5.70;;;4.82;;
41263;SDS011;26998;48.714;9.414;2022-08-03T06:25:42;5.68;;;4.20;;
41263;SDS011;26998;48.714;9.414;2022-08-03T06:28:11;6.63;;;4.63;;
41263;SDS011;26998;48.714;9.414;2022-08-03T06:30:57;5.25;;;4.32;;
41263;SDS011;26998;48.714;9.414;2022-08-03T06:33:24;7.40;;;5.32;;
41263;SDS011;26998;48.714;9.414;2022-08-03T06:36:10;7.30;;;5.15;;
41263;SDS011;26998;48.714;9.414;2022-08-03T06:38:38;8.77;;;5.72;;
41263;SDS011;26998;48.714;9.414;2022-08-03T06:41:05;6.82;;;5.20;;
41263;SDS011;26998;48.714;9.414;2022-08-03T06:43:31;7.43;;;4.93;;
41263;SDS011;26998;48.714;9.414;2022-08-03T06:46:01;7.73;;;5.30;;
41263;SDS011;26998;48.714;9.414;2022-08-03T06:48:27;7.00;;;5.57;;
41263;SDS011;26998;48.714;9.414;2022-08-03T06:50:55;9.90;;;5.20;;
41263;SDS011;26998;48.714;9.414;2022-08-03T06:53:22;6.53;;;4.85;;
41263;SDS011;26998;48.714;9.414;2022-08-03T06:55:50;7.97;;;4.72;;
41263;SDS011;26998;48.714;9.414;2022-08-03T06:58:20;9.48;;;4.82;;
41263;SDS011;26998;48.714;9.414;2022-08-03T07:00:47;6.40;;;4.40;;
41263;SDS011;26998;48.714;9.414;2022-08-03T07:03:13;6.60;;;4.82;;
41263;SDS011;26998;48.714;9.414;2022-08-03T07:05:40;5.53;;;5.03;;
41263;SDS011;26998;48.714;9.414;2022-08-03T07:08:07;7.13;;;5.00;;
41263;SDS011;26998;48.714;9.414;2022-08-03T07:10:34;7.43;;;5.45;;
41263;SDS011;26998;48.714;9.414;2022-08-03T07:13:01;8.27;;;5.68;;
41263;SDS011;26998;48.714;9.414;2022-08-03T07:15:27;5.35;;;4.55;;
41263;SDS011;26998;48.714;9.414;2022-08-03T07:18:13;6.85;;;5.07;;
41263;SDS011;26998;48.714;9.414;2022-08-03T07:20:40;4.80;;;4.05;;
41263;SDS011;26998;48.714;9.414;2022-08-03T07:23:07;5.72;;;5.13;;
41263;SDS011;26998;48.714;9.414;2022-08-03T07:25:33;6.65;;;4.03;;
41263;SDS011;26998;48.714;9.414;2022-08-03T07:28:01;4.07;;;3.75;;
41263;SDS011;26998;48.714;9.414;2022-08-03T07:30:28;5.60;;;4.82;;
41263;SDS011;26998;48.714;9.414;2022-08-03T07:32:55;5.13;;;4.63;;
41263;SDS011;26998;48.714;9.414;2022-08-03T07:35:21;5.07;;;4.07;;
41263;SDS011;26998;48.714;9.414;2022-08-03T07:37:50;4.63;;;3.70;;
41263;SDS011;26998;48.714;9.414;2022-08-03T07:40:20;5.18;;;4.55;;
41263;SDS011;26998;48.714;9.414;2022-08-03T07:42:47;4.38;;;3.97;;
41263;SDS011;26998;48.714;9.414;2022-08-03T07:45:18;4.32;;;3.13;;
41263;SDS011;26998;48.714;9.414;2022-08-03T07:47:45;3.80;;;3.50;;
41263;SDS011;26998;48.714;9.414;2022-08-03T07:50:19;4.30;;;3.67;;
41263;SDS011;26998;48.714;9.414;2022-08-03T07:52:46;4.50;;;3.40;;
41263;SDS011;26998;48.714;9.414;2022-08-03T07:55:12;4.43;;;3.67;;
41263;SDS011;26998;48.714;9.414;2022-08-03T07:57:39;5.30;;;3.80;;
41263;SDS011;26998;48.714;9.414;2022-08-03T08:00:06;3.92;;;3.55;;
41263;SDS011;26998;48.714;9.414;2022-08-03T08:02:38;3.92;;;3.30;;
41263;SDS011;26998;48.714;9.414;2022-08-03T08:05:06;5.35;;;3.65;;
41263;SDS011;26998;48.714;9.414;2022-08-03T08:07:33;8.13;;;3.35;;
41263;SDS011;26998;48.714;9.414;2022-08-03T08:09:59;4.63;;;3.40;;
41263;SDS011;26998;48.714;9.414;2022-08-03T08:12:26;4.78;;;3.55;;
41263;SDS011;26998;48.714;9.414;2022-08-03T08:14:53;8.05;;;3.80;;
41263;SDS011;26998;48.714;9.414;2022-08-03T08:17:19;4.85;;;3.13;;
41263;SDS011;26998;48.714;9.414;2022-08-03T08:19:46;8.75;;;3.17;;
41263;SDS011;26998;48.714;9.414;2022-08-03T08:22:17;3.92;;;3.10;;
41263;SDS011;26998;48.714;9.414;2022-08-03T08:24:48;3.53;;;3.22;;
41263;SDS011;26998;48.714;9.414;2022-08-03T08:27:17;3.30;;;2.92;;
41263;SDS011;26998;48.714;9.414;2022-08-03T08:29:43;4.90;;;3.33;;
41263;SDS011;26998;48.714;9.414;2022-08-03T08:32:21;3.78;;;3.42;;
41263;SDS011;26998;48.714;9.414;2022-08-03T08:34:48;2.80;;;2.60;;
41263;SDS011;26998;48.714;9.414;2022-08-03T08:37:14;5.25;;;3.85;;
41263;SDS011;26998;48.714;9.414;2022-08-03T08:39:42;3.80;;;3.50;;
41263;SDS011;26998;48.714;9.414;2022-08-03T08:42:08;4.40;;;3.47;;
41263;SDS011;26998;48.714;9.414;2022-08-03T08:44:35;4.28;;;3.10;;
41263;SDS011;26998;48.714;9.414;2022-08-03T08:47:02;6.18;;;3.08;;
41263;SDS011;26998;48.714;9.414;2022-08-03T08:49:28;4.88;;;3.22;;
41263;SDS011;26998;48.714;9.414;2022-08-03T08:51:56;3.63;;;3.10;;
41263;SDS011;26998;48.714;9.414;2022-08-03T08:54:26;4.18;;;2.90;;
41263;SDS011;26998;48.714;9.414;2022-08-03T08:56:54;4.65;;;2.80;;
41263;SDS011;26998;48.714;9.414;2022-08-03T08:59:24;6.53;;;2.92;;
41263;SDS011;26998;48.714;9.414;2022-08-03T09:02:12;3.90;;;2.67;;
41263;SDS011;26998;48.714;9.414;2022-08-03T09:04:38;3.25;;;2.90;;
41263;SDS011;26998;48.714;9.414;2022-08-03T09:07:05;4.13;;;2.78;;
41263;SDS011;26998;48.714;9.414;2022-08-03T09:09:52;2.83;;;2.63;;
41263;SDS011;26998;48.714;9.414;2022-08-03T09:12:38;4.05;;;2.35;;
41263;SDS011;26998;48.714;9.414;2022-08-03T09:17:47;4.00;;;2.50;;
41263;SDS011;26998;48.714;9.414;2022-08-03T09:20:16;3.88;;;2.13;;
41263;SDS011;26998;48.714;9.414;2022-08-03T09:22:50;2.88;;;2.50;;
41263;SDS011;26998;48.714;9.414;2022-08-03T09:25:32;5.60;;;2.30;;
41263;SDS011;26998;48.714;9.414;2022-08-03T09:28:10;4.25;;;2.45;;
41263;SDS011;26998;48.714;9.414;2022-08-03T09:31:16;3.28;;;2.00;;
41263;SDS011;26998;48.714;9.414;2022-08-03T09:33:49;2.25;;;1.70;;
41263;SDS011;26998;48.714;9.414;2022-08-03T09:36:39;2.08;;;1.60;;
41263;SDS011;26998;48.714;9.414;2022-08-03T09:39:08;4.57;;;1.92;;
41263;SDS011;26998;48.714;9.414;2022-08-03T09:41:40;2.55;;;1.92;;
41263;SDS011;26998;48.714;9.414;2022-08-03T09:44:08;3.33;;;1.80;;
41263;SDS011;26998;48.714;9.414;2022-08-03T09:46:54;4.30;;;1.90;;
41263;SDS011;26998;48.714;9.414;2022-08-03T09:49:22;3.08;;;2.00;;
41263;SDS011;26998;48.714;9.414;2022-08-03T09:51:50;1.95;;;1.83;;
41263;SDS011;26998;48.714;9.414;2022-08-03T09:54:36;2.65;;;1.60;;
41263;SDS011;26998;48.714;9.414;2022-08-03T09:57:04;1.67;;;1.50;;
41263;SDS011;26998;48.714;9.414;2022-08-03T09:59:32;6.15;;;1.83;;
41263;SDS011;26998;48.714;9.414;2022-08-03T10:01:59;1.70;;;1.60;;
41263;SDS011;26998;48.714;9.414;2022-08-03T10:04:27;1.40;;;1.40;;
41263;SDS011;26998;48.714;9.414;2022-08-03T10:07:07;1.60;;;1.50;;
41263;SDS011;26998;48.714;9.414;2022-08-03T10:09:37;2.13;;;1.60;;
41263;SDS011;26998;48.714;9.414;2022-08-03T10:12:21;1.88;;;1.52;;
41263;SDS011;26998;48.714;9.414;2022-08-03T10:14:50;2.83;;;1.63;;
41263;SDS011;26998;48.714;9.414;2022-08-03T10:17:18;1.77;;;1.45;;
41263;SDS011;26998;48.714;9.414;2022-08-03T10:19:46;2.00;;;1.80;;
41263;SDS011;26998;48.714;9.414;2022-08-03T10:22:14;1.88;;;1.40;;
41263;SDS011;26998;48.714;9.414;2022-08-03T10:27:23;2.20;;;1.77;;
41263;SDS011;26998;48.714;9.414;2022-08-03T10:29:51;1.83;;;1.70;;
41263;SDS011;26998;48.714;9.414;2022-08-03T10:32:30;2.55;;;1.73;;
41263;SDS011;26998;48.714;9.414;2022-08-03T10:35:04;1.33;;;1.27;;
41263;SDS011;26998;48.714;9.414;2022-08-03T10:37:48;2.97;;;1.80;;
41263;SDS011;26998;48.714;9.414;2022-08-03T10:40:22;1.45;;;1.35;;
41263;SDS011;26998;48.714;9.414;2022-08-03T10:43:19;1.80;;;1.70;;
41263;SDS011;26998;48.714;9.414;2022-08-03T10:45:53;1.40;;;1.30;;
41263;SDS011;26998;48.714;9.414;2022-08-03T10:48:21;2.03;;;1.83;;
41263;SDS011;26998;48.714;9.414;2022-08-03T10:50:49;2.00;;;1.80;;
41263;SDS011;26998;48.714;9.414;2022-08-03T10:53:16;1.83;;;1.73;;
41263;SDS011;26998;48.714;9.414;2022-08-03T10:56:00;2.85;;;1.85;;
41263;SDS011;26998;48.714;9.414;2022-08-03T11:01:19;2.08;;;1.70;;
41263;SDS011;26998;48.714;9.414;2022-08-03T11:04:26;1.70;;;1.48;;
41263;SDS011;26998;48.714;9.414;2022-08-03T11:09:51;2.13;;;1.65;;
41263;SDS011;26998;48.714;9.414;2022-08-03T11:15:06;3.25;;;1.70;;
41263;SDS011;26998;48.714;9.414;2022-08-03T11:23:44;2.83;;;1.40;;
41263;SDS011;26998;48.714;9.414;2022-08-03T11:26:31;2.42;;;1.80;;
41263;SDS011;26998;48.714;9.414;2022-08-03T11:29:25;1.80;;;1.70;;
41263;SDS011;26998;48.714;9.414;2022-08-03T11:31:53;1.88;;;1.65;;
41263;SDS011;26998;48.714;9.414;2022-08-03T11:34:20;1.95;;;1.60;;
41263;SDS011;26998;48.714;9.414;2022-08-03T11:44:50;2.55;;;1.80;;
41263;SDS011;26998;48.714;9.414;2022-08-03T11:47:20;1.92;;;1.50;;
41263;SDS011;26998;48.714;9.414;2022-08-03T11:49:48;3.65;;;1.63;;
41263;SDS011;26998;48.714;9.414;2022-08-03T11:52:17;1.65;;;1.55;;
41263;SDS011;26998;48.714;9.414;2022-08-03T11:54:44;2.08;;;1.92;;
41263;SDS011;26998;48.714;9.414;2022-08-03T11:57:10;3.10;;;1.90;;
41263;SDS011;26998;48.714;9.414;2022-08-03T11:59:37;6.28;;;2.17;;
41263;SDS011;26998;48.714;9.414;2022-08-03T12:07:15;2.88;;;1.80;;
41263;SDS011;26998;48.714;9.414;2022-08-03T12:10:06;3.03;;;1.65;;
41263;SDS011;26998;48.714;9.414;2022-08-03T12:12:56;3.10;;;1.50;;
41263;SDS011;26998;48.714;9.414;2022-08-03T12:15:28;1.67;;;1.58;;
41263;SDS011;26998;48.714;9.414;2022-08-03T12:17:57;1.58;;;1.42;;
41263;SDS011;26998;48.714;9.414;2022-08-03T12:20:28;1.88;;;1.77;;
41263;SDS011;26998;48.714;9.414;2022-08-03T12:23:01;3.80;;;1.40;;
41263;SDS011;26998;48.714;9.414;2022-08-03T12:25:29;4.57;;;1.77;;
41263;SDS011;26998;48.714;9.414;2022-08-03T12:28:08;3.92;;;1.40;;
41263;SDS011;26998;48.714;9.414;2022-08-03T12:31:09;1.70;;;1.60;;
41263;SDS011;26998;48.714;9.414;2022-08-03T12:33:55;1.40;;;1.33;;
41263;SDS011;26998;48.714;9.414;2022-08-03T12:36:53;2.58;;;1.70;;
41263;SDS011;26998;48.714;9.414;2022-08-03T12:39:24;2.15;;;1.42;;
41263;SDS011;26998;48.714;9.414;2022-08-03T12:42:07;1.60;;;1.50;;
41263;SDS011;26998;48.714;9.414;2022-08-03T12:44:34;1.80;;;1.48;;
41263;SDS011;26998;48.714;9.414;2022-08-03T12:47:02;1.95;;;1.55;;
41263;SDS011;26998;48.714;9.414;2022-08-03T12:49:48;5.25;;;2.03;;
41263;SDS011;26998;48.714;9.414;2022-08-03T12:52:18;4.53;;;1.67;;
41263;SDS011;26998;48.714;9.414;2022-08-03T12:54:57;2.28;;;1.60;;
41263;SDS011;26998;48.714;9.414;2022-08-03T12:57:39;3.40;;;1.63;;
41263;SDS011;26998;48.714;9.414;2022-08-03T13:00:09;1.90;;;1.30;;
41263;SDS011;26998;48.714;9.414;2022-08-03T13:02:58;2.03;;;1.52;;
41263;SDS011;26998;48.714;9.414;2022-08-03T13:05:45;1.60;;;1.50;;
41263;SDS011;26998;48.714;9.414;2022-08-03T13:08:21;2.38;;;1.50;;
41263;SDS011;26998;48.714;9.414;2022-08-03T13:10:49;1.70;;;1.58;;
41263;SDS011;26998;48.714;9.414;2022-08-03T13:13:16;3.40;;;1.70;;
41263;SDS011;26998;48.714;9.414;2022-08-03T13:15:43;2.70;;;1.60;;
41263;SDS011;26998;48.714;9.414;2022-08-03T13:18:13;1.90;;;1.70;;
41263;SDS011;26998;48.714;9.414;2022-08-03T13:20:42;2.83;;;1.60;;
41263;SDS011;26998;48.714;9.414;2022-08-03T13:23:09;1.70;;;1.60;;
41263;SDS011;26998;48.714;9.414;2022-08-03T13:25:47;1.40;;;1.30;;
41263;SDS011;26998;48.714;9.414;2022-08-03T13:28:21;1.88;;;1.77;;
41263;SDS011;26998;48.714;9.414;2022-08-03T13:30:48;2.10;;;1.92;;
41263;SDS011;26998;48.714;9.414;2022-08-03T13:33:15;1.50;;;1.40;;
41263;SDS011;26998;48.714;9.414;2022-08-03T13:35:41;1.98;;;1.58;;
41263;SDS011;26998;48.714;9.414;2022-08-03T13:38:08;1.95;;;1.58;;
41263;SDS011;26998;48.714;9.414;2022-08-03T13:40:35;2.38;;;1.65;;
41263;SDS011;26998;48.714;9.414;2022-08-03T13:43:07;2.40;;;1.40;;
41263;SDS011;26998;48.714;9.414;2022-08-03T13:45:34;1.70;;;1.60;;
41263;SDS011;26998;48.714;9.414;2022-08-03T13:48:01;2.17;;;1.70;;
41263;SDS011;26998;48.714;9.414;2022-08-03T13:50:27;1.40;;;1.30;;
41263;SDS011;26998;48.714;9.414;2022-08-03T13:52:54;5.28;;;1.90;;
41263;SDS011;26998;48.714;9.414;2022-08-03T13:55:21;1.35;;;1.33;;
41263;SDS011;26998;48.714;9.414;2022-08-03T13:57:48;1.70;;;1.48;;
41263;SDS011;26998;48.714;9.414;2022-08-03T14:00:32;1.70;;;1.45;;
41263;SDS011;26998;48.714;9.414;2022-08-03T14:03:00;2.08;;;1.50;;
41263;SDS011;26998;48.714;9.414;2022-08-03T14:05:38;1.35;;;1.27;;
41263;SDS011;26998;48.714;9.414;2022-08-03T14:08:06;2.05;;;1.50;;
41263;SDS011;26998;48.714;9.414;2022-08-03T14:10:37;1.60;;;1.50;;
41263;SDS011;26998;48.714;9.414;2022-08-03T14:13:09;2.95;;;1.50;;
41263;SDS011;26998;48.714;9.414;2022-08-03T14:15:37;2.75;;;1.52;;
41263;SDS011;26998;48.714;9.414;2022-08-03T14:18:07;1.52;;;1.42;;
41263;SDS011;26998;48.714;9.414;2022-08-03T14:20:41;1.67;;;1.50;;
41263;SDS011;26998;48.714;9.414;2022-08-03T14:23:16;1.88;;;1.50;;
41263;SDS011;26998;48.714;9.414;2022-08-03T14:25:43;1.95;;;1.58;;
41263;SDS011;26998;48.714;9.414;2022-08-03T14:28:18;1.60;;;1.45;;
41263;SDS011;26998;48.714;9.414;2022-08-03T14:30:49;1.65;;;1.55;;
41263;SDS011;26998;48.714;9.414;2022-08-03T14:33:17;3.17;;;1.80;;
41263;SDS011;26998;48.714;9.414;2022-08-03T14:35:43;1.85;;;1.30;;
41263;SDS011;26998;48.714;9.414;2022-08-03T14:38:10;1.40;;;1.40;;
41263;SDS011;26998;48.714;9.414;2022-08-03T14:40:36;1.42;;;1.33;;
41263;SDS011;26998;48.714;9.414;2022-08-03T14:43:03;1.85;;;1.50;;
41263;SDS011;26998;48.714;9.414;2022-08-03T14:45:30;2.25;;;1.60;;
41263;SDS011;26998;48.714;9.414;2022-08-03T14:47:57;1.70;;;1.60;;
41263;SDS011;26998;48.714;9.414;2022-08-03T14:50:43;1.60;;;1.50;;
41263;SDS011;26998;48.714;9.414;2022-08-03T14:53:18;2.47;;;1.60;;
41263;SDS011;26998;48.714;9.414;2022-08-03T14:55:46;1.70;;;1.48;;
41263;SDS011;26998;48.714;9.414;2022-08-03T14:58:17;2.95;;;1.58;;
41263;SDS011;26998;48.714;9.414;2022-08-03T15:00:48;2.58;;;1.63;;
41263;SDS011;26998;48.714;9.414;2022-08-03T15:03:16;1.58;;;1.42;;
41263;SDS011;26998;48.714;9.414;2022-08-03T15:05:43;1.85;;;1.65;;
41263;SDS011;26998;48.714;9.414;2022-08-03T15:08:10;1.52;;;1.42;;
41263;SDS011;26998;48.714;9.414;2022-08-03T15:10:36;1.90;;;1.40;;
41263;SDS011;26998;48.714;9.414;2022-08-03T15:13:05;1.40;;;1.30;;
41263;SDS011;26998;48.714;9.414;2022-08-03T15:15:32;1.70;;;1.60;;
41263;SDS011;26998;48.714;9.414;2022-08-03T15:17:59;1.20;;;1.20;;
41263;SDS011;26998;48.714;9.414;2022-08-03T15:20:26;1.77;;;1.55;;
41263;SDS011;26998;48.714;9.414;2022-08-03T15:23:08;1.65;;;1.55;;
41263;SDS011;26998;48.714;9.414;2022-08-03T15:25:35;3.80;;;1.45;;
41263;SDS011;26998;48.714;9.414;2022-08-03T15:28:21;1.88;;;1.48;;
41263;SDS011;26998;48.714;9.414;2022-08-03T15:30:49;1.40;;;1.30;;
41263;SDS011;26998;48.714;9.414;2022-08-03T15:33:17;1.50;;;1.40;;
41263;SDS011;26998;48.714;9.414;2022-08-03T15:35:43;3.15;;;1.40;;
41263;SDS011;26998;48.714;9.414;2022-08-03T15:38:10;3.47;;;1.55;;
41263;SDS011;26998;48.714;9.414;2022-08-03T15:40:36;2.65;;;1.45;;
41263;SDS011;26998;48.714;9.414;2022-08-03T15:43:03;2.67;;;1.38;;
41263;SDS011;26998;48.714;9.414;2022-08-03T15:45:29;1.67;;;1.58;;
41263;SDS011;26998;48.714;9.414;2022-08-03T15:48:02;2.33;;;1.75;;
41263;SDS011;26998;48.714;9.414;2022-08-03T15:50:31;2.35;;;1.35;;
41263;SDS011;26998;48.714;9.414;2022-08-03T15:53:00;1.60;;;1.50;;